sensor_id;sensor_type;location;lat;lon;timestamp;P1;durP1;ratioP1;P2;durP2;ratioP2
4692;SDS011;11710;48.024;16.296;2023-06-14T03:19:20;6.50;;;5.85;;
4692;SDS011;11710;48.024;16.296;2023-06-14T03:21:47;8.30;;;6.57;;
4692;SDS011;11710;48.024;16.296;2023-06-14T03:24:15;7.43;;;5.82;;
4692;SDS011;11710;48.024;16.296;2023-06-14T03:26:42;12.60;;;6.87;;
4692;SDS011;11710;48.024;16.296;2023-06-14T03:29:09;7.57;;;6.40;;
4692;SDS011;11710;48.024;16.296;2023-06-14T03:31:42;8.65;;;6.47;;
4692;SDS011;11710;48.024;16.296;2023-06-14T03:34:25;8.87;;;6.97;;
4692;SDS011;11710;48.024;16.296;2023-06-14T03:36:53;8.47;;;6.83;;
4692;SDS011;11710;48.024;16.296;2023-06-14T03:39:20;13.73;;;7.10;;
4692;SDS011;11710;48.024;16.296;2023-06-14T03:41:48;9.03;;;6.53;;
4692;SDS011;11710;48.024;16.296;2023-06-14T03:44:15;9.23;;;6.60;;
4692;SDS011;11710;48.024;16.296;2023-06-14T03:46:44;7.50;;;6.23;;
4692;SDS011;11710;48.024;16.296;2023-06-14T03:49:11;12.73;;;7.17;;
4692;SDS011;11710;48.024;16.296;2023-06-14T03:51:40;16.00;;;8.23;;
4692;SDS011;11710;48.024;16.296;2023-06-14T03:54:07;11.37;;;7.77;;
4692;SDS011;11710;48.024;16.296;2023-06-14T03:56:34;11.90;;;7.53;;
4692;SDS011;11710;48.024;16.296;2023-06-14T03:59:01;8.53;;;6.30;;
4692;SDS011;11710;48.024;16.296;2023-06-14T04:01:29;8.10;;;6.47;;
4692;SDS011;11710;48.024;16.296;2023-06-14T04:03:57;10.63;;;7.47;;
4692;SDS011;11710;48.024;16.296;2023-06-14T04:06:24;10.47;;;6.60;;
4692;SDS011;11710;48.024;16.296;2023-06-14T04:08:58;16.73;;;7.00;;
4692;SDS011;11710;48.024;16.296;2023-06-14T04:11:29;8.53;;;7.30;;
4692;SDS011;11710;48.024;16.296;2023-06-14T04:13:57;8.63;;;6.90;;
4692;SDS011;11710;48.024;16.296;2023-06-14T04:16:25;13.60;;;7.13;;
4692;SDS011;11710;48.024;16.296;2023-06-14T04:18:53;9.53;;;6.87;;
4692;SDS011;11710;48.024;16.296;2023-06-14T04:21:23;8.30;;;5.63;;
4692;SDS011;11710;48.024;16.296;2023-06-14T04:23:51;8.53;;;6.50;;
4692;SDS011;11710;48.024;16.296;2023-06-14T04:26:22;7.23;;;6.53;;
4692;SDS011;11710;48.024;16.296;2023-06-14T04:28:55;7.60;;;6.30;;
4692;SDS011;11710;48.024;16.296;2023-06-14T04:31:27;6.43;;;5.83;;
4692;SDS011;11710;48.024;16.296;2023-06-14T04:33:54;6.10;;;5.53;;
4692;SDS011;11710;48.024;16.296;2023-06-14T04:36:21;8.77;;;6.20;;
4692;SDS011;11710;48.024;16.296;2023-06-14T04:38:49;6.87;;;5.97;;
4692;SDS011;11710;48.024;16.296;2023-06-14T04:41:19;7.03;;;6.00;;
4692;SDS011;11710;48.024;16.296;2023-06-14T04:43:55;10.23;;;6.80;;
4692;SDS011;11710;48.024;16.296;2023-06-14T04:46:23;9.20;;;6.53;;
4692;SDS011;11710;48.024;16.296;2023-06-14T04:48:53;7.30;;;6.60;;
4692;SDS011;11710;48.024;16.296;2023-06-14T04:51:21;8.20;;;7.10;;
4692;SDS011;11710;48.024;16.296;2023-06-14T04:53:54;7.63;;;6.80;;
4692;SDS011;11710;48.024;16.296;2023-06-14T04:56:25;8.97;;;6.97;;
4692;SDS011;11710;48.024;16.296;2023-06-14T04:58:52;8.57;;;7.40;;
4692;SDS011;11710;48.024;16.296;2023-06-14T05:01:21;7.40;;;6.70;;
4692;SDS011;11710;48.024;16.296;2023-06-14T05:03:50;8.43;;;7.27;;
4692;SDS011;11710;48.024;16.296;2023-06-14T05:06:17;8.13;;;7.33;;
4692;SDS011;11710;48.024;16.296;2023-06-14T05:08:44;8.50;;;7.60;;
4692;SDS011;11710;48.024;16.296;2023-06-14T05:11:11;8.93;;;8.07;;
4692;SDS011;11710;48.024;16.296;2023-06-14T05:13:40;8.47;;;7.67;;
4692;SDS011;11710;48.024;16.296;2023-06-14T05:16:08;9.83;;;8.17;;
4692;SDS011;11710;48.024;16.296;2023-06-14T05:18:36;11.53;;;9.20;;
4692;SDS011;11710;48.024;16.296;2023-06-14T05:21:05;9.90;;;8.00;;
4692;SDS011;11710;48.024;16.296;2023-06-14T05:23:32;10.10;;;9.00;;
4692;SDS011;11710;48.024;16.296;2023-06-14T05:25:59;9.97;;;8.30;;
4692;SDS011;11710;48.024;16.296;2023-06-14T05:28:29;8.30;;;7.43;;
4692;SDS011;11710;48.024;16.296;2023-06-14T05:30:58;8.63;;;7.70;;
4692;SDS011;11710;48.024;16.296;2023-06-14T05:33:25;9.00;;;7.90;;
4692;SDS011;11710;48.024;16.296;2023-06-14T05:35:52;10.97;;;8.80;;
4692;SDS011;11710;48.024;16.296;2023-06-14T05:38:20;8.90;;;7.77;;
4692;SDS011;11710;48.024;16.296;2023-06-14T05:40:47;11.97;;;8.10;;
4692;SDS011;11710;48.024;16.296;2023-06-14T05:43:14;11.37;;;8.17;;
4692;SDS011;11710;48.024;16.296;2023-06-14T05:45:42;10.00;;;8.20;;
4692;SDS011;11710;48.024;16.296;2023-06-14T05:48:10;9.20;;;8.20;;
4692;SDS011;11710;48.024;16.296;2023-06-14T05:50:37;9.03;;;8.13;;
4692;SDS011;11710;48.024;16.296;2023-06-14T05:53:05;9.70;;;7.83;;
4692;SDS011;11710;48.024;16.296;2023-06-14T05:55:32;9.97;;;8.97;;
4692;SDS011;11710;48.024;16.296;2023-06-14T05:57:59;10.70;;;8.90;;
4692;SDS011;11710;48.024;16.296;2023-06-14T06:00:26;9.97;;;8.20;;
4692;SDS011;11710;48.024;16.296;2023-06-14T06:02:53;10.00;;;8.40;;
4692;SDS011;11710;48.024;16.296;2023-06-14T06:05:24;8.60;;;7.70;;
4692;SDS011;11710;48.024;16.296;2023-06-14T06:07:51;10.00;;;7.57;;
4692;SDS011;11710;48.024;16.296;2023-06-14T06:10:18;9.70;;;8.47;;
4692;SDS011;11710;48.024;16.296;2023-06-14T06:12:46;12.90;;;8.20;;
4692;SDS011;11710;48.024;16.296;2023-06-14T06:15:14;10.00;;;8.53;;
4692;SDS011;11710;48.024;16.296;2023-06-14T06:17:41;10.20;;;9.20;;
4692;SDS011;11710;48.024;16.296;2023-06-14T06:20:09;9.90;;;8.47;;
4692;SDS011;11710;48.024;16.296;2023-06-14T06:22:39;11.63;;;8.73;;
4692;SDS011;11710;48.024;16.296;2023-06-14T06:25:07;10.83;;;8.07;;
4692;SDS011;11710;48.024;16.296;2023-06-14T06:27:35;11.93;;;9.10;;
4692;SDS011;11710;48.024;16.296;2023-06-14T06:30:03;12.63;;;8.47;;
4692;SDS011;11710;48.024;16.296;2023-06-14T06:32:32;8.23;;;7.40;;
4692;SDS011;11710;48.024;16.296;2023-06-14T06:34:59;9.03;;;8.00;;
4692;SDS011;11710;48.024;16.296;2023-06-14T06:37:26;10.67;;;8.50;;
4692;SDS011;11710;48.024;16.296;2023-06-14T06:39:55;9.20;;;7.63;;
4692;SDS011;11710;48.024;16.296;2023-06-14T06:42:22;11.00;;;8.30;;
4692;SDS011;11710;48.024;16.296;2023-06-14T06:44:49;8.50;;;7.70;;
4692;SDS011;11710;48.024;16.296;2023-06-14T06:47:16;12.30;;;8.50;;
4692;SDS011;11710;48.024;16.296;2023-06-14T06:49:44;9.33;;;8.10;;
4692;SDS011;11710;48.024;16.296;2023-06-14T06:52:11;9.80;;;8.17;;
4692;SDS011;11710;48.024;16.296;2023-06-14T06:54:38;8.57;;;7.77;;
4692;SDS011;11710;48.024;16.296;2023-06-14T06:57:07;8.00;;;6.73;;
4692;SDS011;11710;48.024;16.296;2023-06-14T06:59:36;8.20;;;7.30;;
4692;SDS011;11710;48.024;16.296;2023-06-14T07:02:03;8.17;;;6.77;;
4692;SDS011;11710;48.024;16.296;2023-06-14T07:04:32;10.20;;;6.60;;
4692;SDS011;11710;48.024;16.296;2023-06-14T07:06:59;9.20;;;6.60;;
4692;SDS011;11710;48.024;16.296;2023-06-14T07:09:27;6.40;;;5.80;;
4692;SDS011;11710;48.024;16.296;2023-06-14T07:11:54;7.60;;;6.67;;
4692;SDS011;11710;48.024;16.296;2023-06-14T07:14:22;8.70;;;6.70;;
4692;SDS011;11710;48.024;16.296;2023-06-14T07:16:50;7.60;;;6.20;;
4692;SDS011;11710;48.024;16.296;2023-06-14T07:19:17;7.33;;;6.07;;
4692;SDS011;11710;48.024;16.296;2023-06-14T07:21:44;8.80;;;5.80;;
4692;SDS011;11710;48.024;16.296;2023-06-14T07:24:11;5.83;;;5.10;;
4692;SDS011;11710;48.024;16.296;2023-06-14T07:26:38;6.13;;;5.37;;
4692;SDS011;11710;48.024;16.296;2023-06-14T07:29:06;6.27;;;5.63;;
4692;SDS011;11710;48.024;16.296;2023-06-14T07:31:34;7.77;;;5.97;;
4692;SDS011;11710;48.024;16.296;2023-06-14T07:34:01;6.13;;;5.33;;
4692;SDS011;11710;48.024;16.296;2023-06-14T07:36:29;9.97;;;6.40;;
4692;SDS011;11710;48.024;16.296;2023-06-14T07:38:56;6.87;;;6.17;;
4692;SDS011;11710;48.024;16.296;2023-06-14T07:41:23;7.33;;;5.70;;
4692;SDS011;11710;48.024;16.296;2023-06-14T07:43:50;5.67;;;5.17;;
4692;SDS011;11710;48.024;16.296;2023-06-14T07:46:18;6.93;;;5.60;;
4692;SDS011;11710;48.024;16.296;2023-06-14T07:48:46;6.80;;;5.03;;
4692;SDS011;11710;48.024;16.296;2023-06-14T07:51:13;6.10;;;5.50;;
4692;SDS011;11710;48.024;16.296;2023-06-14T07:53:41;6.53;;;5.33;;
4692;SDS011;11710;48.024;16.296;2023-06-14T07:56:08;6.60;;;5.97;;
4692;SDS011;11710;48.024;16.296;2023-06-14T07:58:36;6.80;;;6.20;;
4692;SDS011;11710;48.024;16.296;2023-06-14T08:01:03;8.33;;;6.20;;
4692;SDS011;11710;48.024;16.296;2023-06-14T08:03:33;8.93;;;6.07;;
4692;SDS011;11710;48.024;16.296;2023-06-14T08:06:02;6.73;;;5.97;;
4692;SDS011;11710;48.024;16.296;2023-06-14T08:08:31;6.40;;;5.73;;
4692;SDS011;11710;48.024;16.296;2023-06-14T08:10:58;6.40;;;5.80;;
4692;SDS011;11710;48.024;16.296;2023-06-14T08:13:25;7.70;;;6.00;;
4692;SDS011;11710;48.024;16.296;2023-06-14T08:15:53;7.60;;;5.70;;
4692;SDS011;11710;48.024;16.296;2023-06-14T08:18:22;6.30;;;5.70;;
4692;SDS011;11710;48.024;16.296;2023-06-14T08:20:49;7.03;;;6.13;;
4692;SDS011;11710;48.024;16.296;2023-06-14T08:23:18;6.70;;;5.43;;
4692;SDS011;11710;48.024;16.296;2023-06-14T08:25:46;7.57;;;5.50;;
4692;SDS011;11710;48.024;16.296;2023-06-14T08:28:14;6.47;;;5.70;;
4692;SDS011;11710;48.024;16.296;2023-06-14T08:30:41;10.13;;;6.23;;
4692;SDS011;11710;48.024;16.296;2023-06-14T08:33:09;6.80;;;5.70;;
4692;SDS011;11710;48.024;16.296;2023-06-14T08:35:36;8.70;;;6.40;;
4692;SDS011;11710;48.024;16.296;2023-06-14T08:38:04;6.97;;;6.27;;
4692;SDS011;11710;48.024;16.296;2023-06-14T08:40:33;7.73;;;5.97;;
4692;SDS011;11710;48.024;16.296;2023-06-14T08:43:04;7.20;;;6.20;;
4692;SDS011;11710;48.024;16.296;2023-06-14T08:45:32;7.60;;;6.10;;
4692;SDS011;11710;48.024;16.296;2023-06-14T08:48:00;7.20;;;5.73;;
4692;SDS011;11710;48.024;16.296;2023-06-14T08:50:27;6.97;;;5.90;;
4692;SDS011;11710;48.024;16.296;2023-06-14T08:52:57;7.90;;;5.43;;
4692;SDS011;11710;48.024;16.296;2023-06-14T08:55:27;7.47;;;5.53;;
4692;SDS011;11710;48.024;16.296;2023-06-14T08:57:57;7.40;;;6.13;;
4692;SDS011;11710;48.024;16.296;2023-06-14T09:00:25;9.13;;;5.90;;
4692;SDS011;11710;48.024;16.296;2023-06-14T09:02:53;6.50;;;5.77;;
4692;SDS011;11710;48.024;16.296;2023-06-14T09:05:23;8.43;;;6.10;;
4692;SDS011;11710;48.024;16.296;2023-06-14T09:07:51;6.93;;;6.27;;
4692;SDS011;11710;48.024;16.296;2023-06-14T09:10:21;10.97;;;6.53;;
4692;SDS011;11710;48.024;16.296;2023-06-14T09:12:51;6.70;;;6.10;;
4692;SDS011;11710;48.024;16.296;2023-06-14T09:15:19;10.83;;;6.80;;
4692;SDS011;11710;48.024;16.296;2023-06-14T09:17:47;9.43;;;6.90;;
4692;SDS011;11710;48.024;16.296;2023-06-14T09:20:15;7.57;;;6.73;;
4692;SDS011;11710;48.024;16.296;2023-06-14T09:22:44;9.20;;;6.47;;
4692;SDS011;11710;48.024;16.296;2023-06-14T09:25:11;6.97;;;6.30;;
4692;SDS011;11710;48.024;16.296;2023-06-14T09:27:40;9.13;;;6.60;;
4692;SDS011;11710;48.024;16.296;2023-06-14T09:30:08;6.50;;;5.87;;
4692;SDS011;11710;48.024;16.296;2023-06-14T09:32:39;7.13;;;6.43;;
4692;SDS011;11710;48.024;16.296;2023-06-14T09:35:07;5.83;;;5.33;;
4692;SDS011;11710;48.024;16.296;2023-06-14T09:37:35;7.10;;;6.40;;
4692;SDS011;11710;48.024;16.296;2023-06-14T09:40:05;7.17;;;6.07;;
4692;SDS011;11710;48.024;16.296;2023-06-14T09:42:33;7.07;;;6.37;;
4692;SDS011;11710;48.024;16.296;2023-06-14T09:45:02;6.90;;;6.20;;
4692;SDS011;11710;48.024;16.296;2023-06-14T09:47:31;7.50;;;6.77;;
4692;SDS011;11710;48.024;16.296;2023-06-14T09:49:59;7.20;;;6.50;;
4692;SDS011;11710;48.024;16.296;2023-06-14T09:52:26;9.73;;;6.87;;
4692;SDS011;11710;48.024;16.296;2023-06-14T09:54:55;7.53;;;6.30;;
4692;SDS011;11710;48.024;16.296;2023-06-14T09:57:25;6.57;;;5.80;;
4692;SDS011;11710;48.024;16.296;2023-06-14T09:59:56;7.10;;;6.40;;
4692;SDS011;11710;48.024;16.296;2023-06-14T10:02:25;7.00;;;6.23;;
4692;SDS011;11710;48.024;16.296;2023-06-14T10:04:58;7.43;;;6.07;;
4692;SDS011;11710;48.024;16.296;2023-06-14T10:07:32;6.90;;;6.10;;
4692;SDS011;11710;48.024;16.296;2023-06-14T10:10:05;7.07;;;6.20;;
4692;SDS011;11710;48.024;16.296;2023-06-14T10:12:34;10.03;;;6.40;;
4692;SDS011;11710;48.024;16.296;2023-06-14T10:15:01;7.27;;;6.30;;
4692;SDS011;11710;48.024;16.296;2023-06-14T10:17:33;6.60;;;5.77;;
4692;SDS011;11710;48.024;16.296;2023-06-14T10:20:10;6.97;;;5.70;;
4692;SDS011;11710;48.024;16.296;2023-06-14T10:22:47;8.37;;;7.40;;
4692;SDS011;11710;48.024;16.296;2023-06-14T10:25:27;9.13;;;6.90;;
4692;SDS011;11710;48.024;16.296;2023-06-14T10:28:16;7.47;;;6.80;;
4692;SDS011;11710;48.024;16.296;2023-06-14T10:33:34;7.00;;;6.27;;
4692;SDS011;11710;48.024;16.296;2023-06-14T10:38:59;7.30;;;5.90;;
4692;SDS011;11710;48.024;16.296;2023-06-14T10:41:31;6.23;;;5.63;;
4692;SDS011;11710;48.024;16.296;2023-06-14T10:47:00;6.47;;;5.87;;
4692;SDS011;11710;48.024;16.296;2023-06-14T10:49:38;6.43;;;5.83;;
4692;SDS011;11710;48.024;16.296;2023-06-14T10:52:12;5.93;;;5.33;;
4692;SDS011;11710;48.024;16.296;2023-06-14T10:57:43;5.43;;;4.90;;
4692;SDS011;11710;48.024;16.296;2023-06-14T11:00:13;5.27;;;4.77;;
4692;SDS011;11710;48.024;16.296;2023-06-14T11:05:54;6.27;;;4.63;;
4692;SDS011;11710;48.024;16.296;2023-06-14T11:11:15;6.40;;;5.00;;
4692;SDS011;11710;48.024;16.296;2023-06-14T11:13:44;6.27;;;5.63;;
4692;SDS011;11710;48.024;16.296;2023-06-14T11:16:12;5.40;;;4.90;;
4692;SDS011;11710;48.024;16.296;2023-06-14T11:18:40;5.20;;;4.67;;
4692;SDS011;11710;48.024;16.296;2023-06-14T11:21:08;5.07;;;4.33;;
4692;SDS011;11710;48.024;16.296;2023-06-14T11:23:35;3.80;;;3.50;;
4692;SDS011;11710;48.024;16.296;2023-06-14T11:26:04;4.70;;;4.00;;
4692;SDS011;11710;48.024;16.296;2023-06-14T11:28:35;4.63;;;4.17;;
4692;SDS011;11710;48.024;16.296;2023-06-14T11:31:05;5.23;;;4.27;;
4692;SDS011;11710;48.024;16.296;2023-06-14T11:33:33;4.03;;;3.70;;
4692;SDS011;11710;48.024;16.296;2023-06-14T11:36:02;5.00;;;4.20;;
4692;SDS011;11710;48.024;16.296;2023-06-14T11:38:30;5.43;;;4.30;;
4692;SDS011;11710;48.024;16.296;2023-06-14T11:41:01;5.60;;;4.37;;
4692;SDS011;11710;48.024;16.296;2023-06-14T11:43:29;6.30;;;4.83;;
4692;SDS011;11710;48.024;16.296;2023-06-14T11:46:00;4.40;;;4.00;;
4692;SDS011;11710;48.024;16.296;2023-06-14T11:48:35;6.03;;;5.17;;
4692;SDS011;11710;48.024;16.296;2023-06-14T11:51:04;6.87;;;4.67;;
4692;SDS011;11710;48.024;16.296;2023-06-14T11:53:31;5.07;;;4.47;;
4692;SDS011;11710;48.024;16.296;2023-06-14T11:55:59;5.00;;;4.23;;
4692;SDS011;11710;48.024;16.296;2023-06-14T11:58:28;7.53;;;4.47;;
4692;SDS011;11710;48.024;16.296;2023-06-14T12:00:57;7.30;;;4.33;;
4692;SDS011;11710;48.024;16.296;2023-06-14T12:03:25;5.10;;;4.33;;
4692;SDS011;11710;48.024;16.296;2023-06-14T12:06:04;6.60;;;4.60;;
4692;SDS011;11710;48.024;16.296;2023-06-14T12:08:33;4.37;;;3.97;;
4692;SDS011;11710;48.024;16.296;2023-06-14T12:11:04;6.40;;;4.17;;
4692;SDS011;11710;48.024;16.296;2023-06-14T12:13:37;4.13;;;3.73;;
4692;SDS011;11710;48.024;16.296;2023-06-14T12:16:06;4.67;;;4.17;;
4692;SDS011;11710;48.024;16.296;2023-06-14T12:18:34;4.30;;;3.90;;
4692;SDS011;11710;48.024;16.296;2023-06-14T12:21:04;4.33;;;3.90;;
4692;SDS011;11710;48.024;16.296;2023-06-14T12:23:44;4.60;;;3.57;;
4692;SDS011;11710;48.024;16.296;2023-06-14T12:26:13;4.93;;;3.60;;
4692;SDS011;11710;48.024;16.296;2023-06-14T12:28:44;10.30;;;4.23;;
4692;SDS011;11710;48.024;16.296;2023-06-14T12:31:12;4.00;;;3.63;;
4692;SDS011;11710;48.024;16.296;2023-06-14T12:33:40;3.80;;;3.50;;
4692;SDS011;11710;48.024;16.296;2023-06-14T12:36:08;4.20;;;3.80;;
4692;SDS011;11710;48.024;16.296;2023-06-14T12:38:36;5.17;;;3.80;;
4692;SDS011;11710;48.024;16.296;2023-06-14T12:41:03;4.00;;;3.70;;
4692;SDS011;11710;48.024;16.296;2023-06-14T12:43:31;5.63;;;4.07;;
4692;SDS011;11710;48.024;16.296;2023-06-14T12:45:59;4.43;;;4.03;;
4692;SDS011;11710;48.024;16.296;2023-06-14T12:48:27;5.07;;;4.20;;
4692;SDS011;11710;48.024;16.296;2023-06-14T12:50:56;4.17;;;3.77;;
4692;SDS011;11710;48.024;16.296;2023-06-14T12:53:23;4.20;;;3.80;;
4692;SDS011;11710;48.024;16.296;2023-06-14T12:55:50;4.33;;;3.63;;
4692;SDS011;11710;48.024;16.296;2023-06-14T12:58:18;4.30;;;3.90;;
4692;SDS011;11710;48.024;16.296;2023-06-14T13:00:45;4.83;;;3.90;;
4692;SDS011;11710;48.024;16.296;2023-06-14T13:03:14;6.80;;;4.30;;
4692;SDS011;11710;48.024;16.296;2023-06-14T13:05:42;4.53;;;4.00;;
4692;SDS011;11710;48.024;16.296;2023-06-14T13:08:09;4.70;;;4.20;;
4692;SDS011;11710;48.024;16.296;2023-06-14T13:10:36;4.73;;;3.57;;
4692;SDS011;11710;48.024;16.296;2023-06-14T13:13:03;4.10;;;3.70;;
4692;SDS011;11710;48.024;16.296;2023-06-14T13:15:32;4.60;;;3.73;;
4692;SDS011;11710;48.024;16.296;2023-06-14T13:17:59;5.27;;;3.97;;
4692;SDS011;11710;48.024;16.296;2023-06-14T13:20:29;6.33;;;4.07;;
4692;SDS011;11710;48.024;16.296;2023-06-14T13:22:57;5.20;;;4.10;;
4692;SDS011;11710;48.024;16.296;2023-06-14T13:25:24;5.07;;;4.17;;
4692;SDS011;11710;48.024;16.296;2023-06-14T13:27:51;4.97;;;4.43;;
4692;SDS011;11710;48.024;16.296;2023-06-14T13:30:18;4.00;;;3.63;;
4692;SDS011;11710;48.024;16.296;2023-06-14T13:32:46;6.10;;;3.90;;
4692;SDS011;11710;48.024;16.296;2023-06-14T13:35:14;4.33;;;3.90;;
4692;SDS011;11710;48.024;16.296;2023-06-14T13:37:43;4.40;;;4.00;;
4692;SDS011;11710;48.024;16.296;2023-06-14T13:40:10;5.70;;;4.10;;
4692;SDS011;11710;48.024;16.296;2023-06-14T13:42:38;6.73;;;4.07;;
4692;SDS011;11710;48.024;16.296;2023-06-14T13:45:06;4.73;;;3.83;;
4692;SDS011;11710;48.024;16.296;2023-06-14T13:47:34;4.33;;;3.93;;
4692;SDS011;11710;48.024;16.296;2023-06-14T13:50:01;4.63;;;3.97;;
4692;SDS011;11710;48.024;16.296;2023-06-14T13:52:29;4.57;;;4.17;;
4692;SDS011;11710;48.024;16.296;2023-06-14T13:54:58;4.93;;;4.40;;
4692;SDS011;11710;48.024;16.296;2023-06-14T13:57:25;5.10;;;3.80;;
4692;SDS011;11710;48.024;16.296;2023-06-14T13:59:52;4.17;;;3.80;;
4692;SDS011;11710;48.024;16.296;2023-06-14T14:02:20;4.17;;;3.77;;
4692;SDS011;11710;48.024;16.296;2023-06-14T14:04:47;4.83;;;4.00;;
4692;SDS011;11710;48.024;16.296;2023-06-14T14:07:18;6.20;;;4.17;;
4692;SDS011;11710;48.024;16.296;2023-06-14T14:09:47;4.43;;;3.97;;
4692;SDS011;11710;48.024;16.296;2023-06-14T14:12:16;4.37;;;3.80;;
4692;SDS011;11710;48.024;16.296;2023-06-14T14:14:43;4.30;;;3.87;;
4692;SDS011;11710;48.024;16.296;2023-06-14T14:17:11;4.30;;;3.90;;
4692;SDS011;11710;48.024;16.296;2023-06-14T14:19:38;4.93;;;4.10;;
4692;SDS011;11710;48.024;16.296;2023-06-14T14:22:05;4.97;;;4.07;;
4692;SDS011;11710;48.024;16.296;2023-06-14T14:24:32;4.00;;;3.70;;
4692;SDS011;11710;48.024;16.296;2023-06-14T14:27:00;4.40;;;4.00;;
4692;SDS011;11710;48.024;16.296;2023-06-14T14:29:28;4.43;;;4.03;;
4692;SDS011;11710;48.024;16.296;2023-06-14T14:31:56;6.10;;;4.13;;
4692;SDS011;11710;48.024;16.296;2023-06-14T14:34:24;3.93;;;3.57;;
4692;SDS011;11710;48.024;16.296;2023-06-14T14:36:51;4.83;;;3.80;;
4692;SDS011;11710;48.024;16.296;2023-06-14T14:39:18;6.30;;;4.00;;
4692;SDS011;11710;48.024;16.296;2023-06-14T14:41:46;5.37;;;4.00;;
4692;SDS011;11710;48.024;16.296;2023-06-14T14:44:13;4.67;;;3.80;;
4692;SDS011;11710;48.024;16.296;2023-06-14T14:46:41;4.70;;;4.03;;
4692;SDS011;11710;48.024;16.296;2023-06-14T14:49:09;5.43;;;4.10;;
4692;SDS011;11710;48.024;16.296;2023-06-14T14:51:36;4.50;;;4.10;;
4692;SDS011;11710;48.024;16.296;2023-06-14T14:54:05;5.27;;;3.90;;
4692;SDS011;11710;48.024;16.296;2023-06-14T14:56:32;4.90;;;4.00;;
4692;SDS011;11710;48.024;16.296;2023-06-14T14:59:00;5.07;;;4.10;;
4692;SDS011;11710;48.024;16.296;2023-06-14T15:01:28;4.67;;;4.07;;
4692;SDS011;11710;48.024;16.296;2023-06-14T15:03:56;4.87;;;4.40;;
4692;SDS011;11710;48.024;16.296;2023-06-14T15:06:24;4.00;;;3.70;;
4692;SDS011;11710;48.024;16.296;2023-06-14T15:08:51;5.00;;;4.00;;
4692;SDS011;11710;48.024;16.296;2023-06-14T15:11:18;5.63;;;3.80;;
4692;SDS011;11710;48.024;16.296;2023-06-14T15:13:46;4.70;;;4.20;;
4692;SDS011;11710;48.024;16.296;2023-06-14T15:16:14;4.50;;;4.00;;
4692;SDS011;11710;48.024;16.296;2023-06-14T15:18:41;5.20;;;4.33;;
4692;SDS011;11710;48.024;16.296;2023-06-14T15:21:09;4.90;;;4.03;;
4692;SDS011;11710;48.024;16.296;2023-06-14T15:23:37;4.27;;;3.87;;
4692;SDS011;11710;48.024;16.296;2023-06-14T15:26:04;4.47;;;4.07;;
4692;SDS011;11710;48.024;16.296;2023-06-14T15:28:31;4.83;;;3.60;;
4692;SDS011;11710;48.024;16.296;2023-06-14T15:30:58;4.23;;;3.83;;
4692;SDS011;11710;48.024;16.296;2023-06-14T15:33:26;8.63;;;4.27;;
4692;SDS011;11710;48.024;16.296;2023-06-14T15:35:53;4.63;;;3.70;;
4692;SDS011;11710;48.024;16.296;2023-06-14T15:38:22;4.10;;;3.70;;
4692;SDS011;11710;48.024;16.296;2023-06-14T15:40:49;4.20;;;3.80;;
4692;SDS011;11710;48.024;16.296;2023-06-14T15:43:16;4.83;;;4.07;;
4692;SDS011;11710;48.024;16.296;2023-06-14T15:45:43;4.33;;;3.93;;
4692;SDS011;11710;48.024;16.296;2023-06-14T15:48:11;5.07;;;4.30;;
4692;SDS011;11710;48.024;16.296;2023-06-14T15:50:38;4.80;;;4.17;;
4692;SDS011;11710;48.024;16.296;2023-06-14T15:53:05;4.30;;;3.80;;
4692;SDS011;11710;48.024;16.296;2023-06-14T15:55:34;4.30;;;3.90;;
4692;SDS011;11710;48.024;16.296;2023-06-14T15:58:01;7.43;;;4.40;;
4692;SDS011;11710;48.024;16.296;2023-06-14T16:00:28;4.50;;;4.10;;
4692;SDS011;11710;48.024;16.296;2023-06-14T16:02:55;6.80;;;3.60;;
4692;SDS011;11710;48.024;16.296;2023-06-14T16:05:22;5.40;;;4.30;;
4692;SDS011;11710;48.024;16.296;2023-06-14T16:07:49;3.97;;;3.30;;
4692;SDS011;11710;48.024;16.296;2023-06-14T16:10:17;3.90;;;3.50;;
4692;SDS011;11710;48.024;16.296;2023-06-14T16:12:46;4.70;;;4.20;;
4692;SDS011;11710;48.024;16.296;2023-06-14T16:15:13;4.47;;;4.03;;
4692;SDS011;11710;48.024;16.296;2023-06-14T16:17:41;4.43;;;4.00;;
4692;SDS011;11710;48.024;16.296;2023-06-14T16:20:09;7.33;;;4.17;;
4692;SDS011;11710;48.024;16.296;2023-06-14T16:22:36;3.93;;;3.50;;
4692;SDS011;11710;48.024;16.296;2023-06-14T16:25:04;4.80;;;4.23;;
4692;SDS011;11710;48.024;16.296;2023-06-14T16:27:32;4.57;;;4.17;;
4692;SDS011;11710;48.024;16.296;2023-06-14T16:30:01;6.00;;;4.30;;
4692;SDS011;11710;48.024;16.296;2023-06-14T16:32:28;4.60;;;4.20;;
4692;SDS011;11710;48.024;16.296;2023-06-14T16:34:55;4.67;;;4.17;;
4692;SDS011;11710;48.024;16.296;2023-06-14T16:37:22;8.13;;;3.87;;
4692;SDS011;11710;48.024;16.296;2023-06-14T16:39:50;4.73;;;4.00;;
4692;SDS011;11710;48.024;16.296;2023-06-14T16:42:17;5.10;;;4.10;;
4692;SDS011;11710;48.024;16.296;2023-06-14T16:44:44;4.73;;;4.13;;
4692;SDS011;11710;48.024;16.296;2023-06-14T16:47:13;5.93;;;3.87;;
4692;SDS011;11710;48.024;16.296;2023-06-14T16:49:40;4.73;;;3.87;;
4692;SDS011;11710;48.024;16.296;2023-06-14T16:52:07;5.50;;;4.67;;
4692;SDS011;11710;48.024;16.296;2023-06-14T16:54:34;5.00;;;3.97;;
4692;SDS011;11710;48.024;16.296;2023-06-14T16:57:01;5.10;;;4.30;;
4692;SDS011;11710;48.024;16.296;2023-06-14T16:59:29;4.43;;;3.70;;
4692;SDS011;11710;48.024;16.296;2023-06-14T17:02:01;6.50;;;3.70;;
4692;SDS011;11710;48.024;16.296;2023-06-14T17:04:31;4.63;;;3.77;;
4692;SDS011;11710;48.024;16.296;2023-06-14T17:06:59;4.43;;;3.80;;
4692;SDS011;11710;48.024;16.296;2023-06-14T17:09:28;5.00;;;4.13;;
4692;SDS011;11710;48.024;16.296;2023-06-14T17:11:56;4.60;;;4.20;;
4692;SDS011;11710;48.024;16.296;2023-06-14T17:14:23;5.07;;;4.57;;
4692;SDS011;11710;48.024;16.296;2023-06-14T17:16:50;5.00;;;3.90;;
4692;SDS011;11710;48.024;16.296;2023-06-14T17:19:17;5.77;;;4.10;;
4692;SDS011;11710;48.024;16.296;2023-06-14T17:21:46;4.50;;;4.10;;
4692;SDS011;11710;48.024;16.296;2023-06-14T17:24:17;4.60;;;4.20;;
4692;SDS011;11710;48.024;16.296;2023-06-14T17:26:45;4.53;;;4.13;;
4692;SDS011;11710;48.024;16.296;2023-06-14T17:29:14;4.77;;;4.30;;
4692;SDS011;11710;48.024;16.296;2023-06-14T17:31:41;5.33;;;4.07;;
4692;SDS011;11710;48.024;16.296;2023-06-14T17:34:08;4.20;;;3.67;;
4692;SDS011;11710;48.024;16.296;2023-06-14T17:36:36;4.63;;;4.23;;
4692;SDS011;11710;48.024;16.296;2023-06-14T17:39:04;6.17;;;4.90;;
4692;SDS011;11710;48.024;16.296;2023-06-14T17:41:33;6.80;;;5.60;;
4692;SDS011;11710;48.024;16.296;2023-06-14T17:44:00;6.73;;;5.63;;
4692;SDS011;11710;48.024;16.296;2023-06-14T17:46:28;6.60;;;5.90;;
4692;SDS011;11710;48.024;16.296;2023-06-14T17:48:55;7.40;;;5.57;;
4692;SDS011;11710;48.024;16.296;2023-06-14T17:51:22;6.40;;;5.50;;
4692;SDS011;11710;48.024;16.296;2023-06-14T17:53:49;5.33;;;4.77;;
4692;SDS011;11710;48.024;16.296;2023-06-14T17:56:19;5.73;;;5.13;;
4692;SDS011;11710;48.024;16.296;2023-06-14T17:58:46;5.77;;;5.20;;
4692;SDS011;11710;48.024;16.296;2023-06-14T18:01:13;6.00;;;5.40;;
4692;SDS011;11710;48.024;16.296;2023-06-14T18:03:41;5.60;;;4.93;;
4692;SDS011;11710;48.024;16.296;2023-06-14T18:06:09;9.13;;;5.57;;
4692;SDS011;11710;48.024;16.296;2023-06-14T18:08:37;6.67;;;5.37;;
4692;SDS011;11710;48.024;16.296;2023-06-14T18:11:04;7.90;;;5.50;;
4692;SDS011;11710;48.024;16.296;2023-06-14T18:13:33;5.83;;;4.70;;
4692;SDS011;11710;48.024;16.296;2023-06-14T18:16:01;6.37;;;5.00;;
4692;SDS011;11710;48.024;16.296;2023-06-14T18:18:28;7.47;;;5.70;;
4692;SDS011;11710;48.024;16.296;2023-06-14T18:20:55;8.00;;;5.80;;
4692;SDS011;11710;48.024;16.296;2023-06-14T18:23:23;6.20;;;5.60;;
4692;SDS011;11710;48.024;16.296;2023-06-14T18:25:50;6.03;;;5.30;;
4692;SDS011;11710;48.024;16.296;2023-06-14T18:28:18;6.90;;;6.07;;